Time;durP1;ratioP1;P1;durP2;ratioP2;P2;SDS_P1;SDS_P2;PMS_P1;PMS_P2;Temp;Humidity;BMP_temperature;BMP_pressure;BME280_temperature;BME280_humidity;BME280_pressure;Samples;Min_cycle;Max_cycle;Signal;HPM_P1;HPM_P2
2023/05/30 00:02:13;;;;;;;6.20;3.70;;;;;;;19.16;37.30;100156.50;107901;1256;61822;-68
2023/05/30 00:04:40;;;;;;;6.70;4.40;;;;;;;19.23;37.20;100152.30;107908;1256;60359;-68
2023/05/30 00:07:07;;;;;;;7.10;4.10;;;;;;;19.28;37.01;100145.83;107919;1256;73758;-68
2023/05/30 00:09:33;;;;;;;6.90;3.70;;;;;;;19.29;37.03;100146.30;107869;1256;70226;-68
2023/05/30 00:12:00;;;;;;;7.60;4.30;;;;;;;19.27;37.34;100146.09;107874;1256;59209;-67
2023/05/30 00:14:27;;;;;;;6.20;3.90;;;;;;;19.12;37.42;100146.48;107859;1256;60274;-68
2023/05/30 00:16:53;;;;;;;9.90;4.10;;;;;;;19.24;37.15;100146.31;107922;1256;60416;-68
2023/05/30 00:19:20;;;;;;;4.50;3.80;;;;;;;19.09;37.36;100147.10;107881;1256;73846;-71
2023/05/30 00:21:47;;;;;;;7.10;4.20;;;;;;;19.00;37.31;100149.36;107909;1256;70229;-69
2023/05/30 00:24:14;;;;;;;7.80;4.10;;;;;;;18.90;37.46;100143.82;107820;1256;70518;-68
2023/05/30 00:26:40;;;;;;;9.50;4.50;;;;;;;18.80;37.56;100144.90;107867;1259;61955;-67
2023/05/30 00:29:07;;;;;;;6.20;4.20;;;;;;;18.74;37.77;100146.02;107876;1256;60254;-68
2023/05/30 00:31:33;;;;;;;11.50;4.40;;;;;;;18.74;37.76;100144.44;107945;1256;73793;-68
2023/05/30 00:34:00;;;;;;;9.20;4.20;;;;;;;18.54;38.08;100142.94;107929;1257;70168;-68
2023/05/30 00:36:27;;;;;;;10.30;4.60;;;;;;;18.45;38.21;100141.80;107847;1257;73155;-68
2023/05/30 00:38:53;;;;;;;8.60;4.10;;;;;;;18.49;38.19;100141.33;107714;1256;60361;-68
2023/05/30 00:41:20;;;;;;;8.10;4.30;;;;;;;18.21;38.52;100140.61;107916;1256;60336;-68
2023/05/30 00:43:47;;;;;;;8.00;4.30;;;;;;;18.11;38.72;100139.86;107885;1256;60516;-68
2023/05/30 00:46:14;;;;;;;9.70;4.30;;;;;;;18.28;38.36;100137.48;107911;1257;60332;-68
2023/05/30 00:48:41;;;;;;;11.10;4.20;;;;;;;18.12;38.58;100137.64;107738;1256;72615;-68
2023/05/30 00:51:10;;;;;;;6.80;4.20;;;;;;;18.17;38.65;100133.97;107920;1256;61998;-68
2023/05/30 00:53:37;;;;;;;9.40;4.50;;;;;;;18.18;38.66;100140.66;107610;1256;60446;-67
2023/05/30 00:56:03;;;;;;;7.80;4.20;;;;;;;18.18;38.66;100142.91;107845;1256;71641;-67
2023/05/30 00:58:30;;;;;;;12.50;4.60;;;;;;;18.20;38.58;100140.27;107836;1256;70274;-70
2023/05/30 01:00:57;;;;;;;7.30;4.30;;;;;;;18.25;38.50;100137.48;107626;1256;60536;-68
2023/05/30 01:03:27;;;;;;;7.20;4.40;;;;;;;18.21;38.64;100137.36;107878;1256;62295;-69
2023/05/30 01:05:54;;;;;;;6.90;3.90;;;;;;;18.21;38.65;100131.20;107829;1261;60406;-68
2023/05/30 01:08:21;;;;;;;11.70;5.00;;;;;;;18.32;38.68;100134.50;107695;1256;73789;-69
2023/05/30 01:10:51;;;;;;;8.10;4.20;;;;;;;18.21;38.65;100128.30;107868;1257;70418;-67
2023/05/30 01:13:29;;;;;;;5.40;4.10;;;;;;;18.18;38.64;100127.98;107652;1256;72523;-68
2023/05/30 01:16:08;;;;;;;7.90;4.60;;;;;;;18.13;38.83;100126.23;107582;1256;61818;-68
2023/05/30 01:18:39;;;;;;;11.50;5.40;;;;;;;17.99;39.05;100128.63;107847;1256;61064;-68
2023/05/30 01:21:10;;;;;;;6.10;4.10;;;;;;;17.87;39.41;100126.40;107602;1256;73618;-68
2023/05/30 01:23:43;;;;;;;7.80;4.10;;;;;;;17.96;39.25;100125.26;107844;1257;70324;-69
2023/05/30 01:26:12;;;;;;;7.10;3.50;;;;;;;18.13;39.04;100127.84;107753;1257;71340;-68
2023/05/30 01:28:39;;;;;;;6.70;4.10;;;;;;;17.96;39.48;100122.59;107632;1257;60949;-68
2023/05/30 01:31:06;;;;;;;11.00;4.60;;;;;;;17.96;39.50;100121.92;107667;1257;60463;-69
2023/05/30 01:33:34;;;;;;;6.90;4.00;;;;;;;18.04;39.28;100125.63;107666;1256;73851;-68
2023/05/30 01:36:00;;;;;;;8.10;5.00;;;;;;;18.16;39.21;100122.12;107679;1257;70093;-68
2023/05/30 01:38:28;;;;;;;9.00;5.10;;;;;;;17.88;39.65;100119.45;107917;1256;72474;-70
2023/05/30 01:40:58;;;;;;;7.30;3.90;;;;;;;17.88;39.65;100118.16;107977;1256;61136;-67
2023/05/30 01:43:34;;;;;;;7.00;4.60;;;;;;;17.91;39.71;100117.28;107983;1256;59157;-66
2023/05/30 01:46:01;;;;;;;7.00;4.50;;;;;;;17.86;39.76;100122.40;107951;1256;73741;-67
2023/05/30 01:48:47;;;;;;;6.20;4.30;;;;;;;17.83;39.86;100122.21;107728;1256;70271;-67
2023/05/30 01:51:15;;;;;;;6.60;4.40;;;;;;;17.88;39.75;100123.98;107712;1257;71276;-68
2023/05/30 01:53:46;;;;;;;6.60;3.80;;;;;;;18.04;39.65;100120.98;107955;1256;60227;-68
2023/05/30 01:56:13;;;;;;;7.00;5.10;;;;;;;18.16;39.73;100124.23;107911;1256;60410;-69
2023/05/30 01:58:40;;;;;;;7.40;5.30;;;;;;;17.97;39.75;100122.85;107947;1256;73836;-67
2023/05/30 02:01:06;;;;;;;9.40;4.70;;;;;;;17.62;40.37;100121.06;107688;1256;69242;-67
2023/05/30 02:03:33;;;;;;;11.00;5.30;;;;;;;17.58;40.59;100118.52;107615;1256;60417;-67
2023/05/30 02:06:00;;;;;;;7.60;4.90;;;;;;;17.56;40.70;100119.40;107528;1265;60953;-66
2023/05/30 02:08:27;;;;;;;8.90;5.10;;;;;;;18.05;39.99;100120.36;107707;1257;60385;-66
2023/05/30 02:10:54;;;;;;;7.20;4.70;;;;;;;17.89;40.02;100119.84;107664;1256;74482;-68
2023/05/30 02:13:21;;;;;;;9.10;5.70;;;;;;;17.95;39.83;100125.44;107691;1263;70299;-67
2023/05/30 02:15:48;;;;;;;8.70;5.00;;;;;;;17.65;40.54;100127.67;107916;1256;72724;-67
2023/05/30 02:18:15;;;;;;;6.90;4.70;;;;;;;17.90;40.08;100127.08;107724;1256;61195;-68
2023/05/30 02:20:43;;;;;;;6.70;4.90;;;;;;;18.32;39.51;100129.21;107933;1256;60383;-68
2023/05/30 02:23:10;;;;;;;12.40;5.50;;;;;;;18.44;39.32;100123.58;107949;1256;73978;-68
2023/05/30 02:25:36;;;;;;;6.90;4.70;;;;;;;18.52;39.26;100123.00;107837;1261;70129;-67
2023/05/30 02:28:03;;;;;;;9.80;5.20;;;;;;;18.37;39.51;100122.77;107898;1256;72715;-68
2023/05/30 02:30:30;;;;;;;7.80;5.40;;;;;;;18.45;39.39;100117.42;107881;1256;61662;-68
2023/05/30 02:32:57;;;;;;;6.90;4.50;;;;;;;18.72;38.95;100122.34;107700;1257;60434;-68
2023/05/30 02:35:24;;;;;;;11.90;5.40;;;;;;;18.67;39.18;100118.55;107902;1257;71931;-67
2023/05/30 02:37:51;;;;;;;7.10;4.80;;;;;;;18.75;39.08;100115.36;107731;1257;70278;-68
2023/05/30 02:40:17;;;;;;;12.40;5.80;;;;;;;18.89;38.94;100112.36;107948;1256;71372;-67
2023/05/30 02:42:44;;;;;;;8.70;4.70;;;;;;;18.74;39.03;100113.80;107712;1257;60800;-68
2023/05/30 02:45:11;;;;;;;8.80;4.90;;;;;;;18.68;39.34;100113.52;107945;1256;60537;-67
2023/05/30 02:47:40;;;;;;;7.50;5.00;;;;;;;19.02;38.82;100109.69;107707;1256;73685;-69
2023/05/30 02:50:07;;;;;;;10.80;5.40;;;;;;;19.02;38.77;100108.09;107697;1256;70210;-68
2023/05/30 02:52:35;;;;;;;8.30;4.30;;;;;;;18.92;39.22;100109.52;107712;1262;72692;-67
2023/05/30 02:55:02;;;;;;;5.60;4.40;;;;;;;18.81;39.44;100112.77;107692;1256;62102;-67
2023/05/30 02:57:51;;;;;;;7.10;4.80;;;;;;;19.13;38.88;100113.87;107837;1256;60347;-67
2023/05/30 03:00:26;;;;;;;9.80;5.40;;;;;;;19.20;38.76;100112.80;107611;1256;72658;-68
2023/05/30 03:03:10;;;;;;;8.90;5.30;;;;;;;19.43;38.46;100112.60;107639;1256;70217;-67
2023/05/30 03:05:41;;;;;;;6.80;4.50;;;;;;;19.69;38.09;100113.46;107614;1262;70617;-68
2023/05/30 03:08:10;;;;;;;11.20;5.30;;;;;;;19.94;37.94;100115.00;107856;1256;60450;-68
2023/05/30 03:10:52;;;;;;;7.20;5.10;;;;;;;20.15;37.72;100120.12;107866;1256;60301;-68
2023/05/30 03:13:19;;;;;;;7.50;4.30;;;;;;;20.36;37.36;100124.44;107939;1256;73683;-68
2023/05/30 03:15:46;;;;;;;10.00;5.00;;;;;;;20.66;37.07;100118.16;107677;1256;70407;-68
2023/05/30 03:18:13;;;;;;;9.10;3.80;;;;;;;20.78;36.94;100118.06;107635;1256;72609;-68
2023/05/30 03:20:40;;;;;;;8.50;4.50;;;;;;;20.97;36.77;100118.56;107594;1263;62025;-67
2023/05/30 03:23:07;;;;;;;9.30;5.20;;;;;;;21.09;36.68;100122.17;107789;1260;60378;-67
2023/05/30 03:25:35;;;;;;;6.60;3.90;;;;;;;21.26;36.42;100119.73;107822;1261;73959;-68
2023/05/30 03:28:06;;;;;;;6.40;4.30;;;;;;;21.34;36.33;100118.55;107923;1256;70162;-72
2023/05/30 03:30:34;;;;;;;9.30;4.70;;;;;;;20.95;36.97;100115.13;107832;1257;72601;-67
2023/05/30 03:33:01;;;;;;;10.80;4.30;;;;;;;21.40;36.42;100117.02;107640;1256;62176;-72
2023/05/30 03:35:28;;;;;;;13.10;4.10;;;;;;;21.70;36.00;100118.98;107852;1256;60354;-69
2023/05/30 03:37:55;;;;;;;12.00;4.20;;;;;;;22.05;35.79;100117.48;107637;1262;74249;-69
2023/05/30 03:40:21;;;;;;;9.80;4.30;;;;;;;22.16;35.49;100110.61;107662;1257;60178;-66
2023/05/30 03:42:50;;;;;;;6.40;3.90;;;;;;;22.52;35.33;100109.70;107859;1256;60692;-68
2023/05/30 03:45:17;;;;;;;5.90;3.80;;;;;;;22.69;35.09;100110.36;107898;1257;60530;-68
2023/05/30 03:47:43;;;;;;;10.90;3.60;;;;;;;23.06;34.85;100105.10;107922;1257;60433;-69
2023/05/30 03:50:10;;;;;;;6.90;4.00;;;;;;;23.29;34.44;100107.95;107882;1260;73715;-68
2023/05/30 03:52:38;;;;;;;6.60;3.80;;;;;;;23.02;35.00;100102.60;107843;1256;70315;-68
2023/05/30 03:55:05;;;;;;;5.50;3.70;;;;;;;23.14;34.93;100104.94;107879;1256;73291;-68
2023/05/30 03:57:35;;;;;;;7.70;3.60;;;;;;;23.50;34.51;100108.32;107673;1256;60359;-69
2023/05/30 04:00:05;;;;;;;9.60;3.40;;;;;;;23.82;34.12;100109.20;108006;1257;60348;-68
2023/05/30 04:02:38;;;;;;;6.30;3.70;;;;;;;24.11;33.81;100111.83;107680;1256;73698;-68
2023/05/30 04:05:06;;;;;;;8.00;3.30;;;;;;;24.51;33.32;100109.09;107640;1257;70157;-69
2023/05/30 04:07:35;;;;;;;4.90;3.30;;;;;;;24.93;32.78;100109.27;107943;1260;72907;-68
2023/05/30 04:10:06;;;;;;;5.30;3.10;;;;;;;25.60;31.96;100109.23;107533;1257;60502;-69
2023/05/30 04:12:33;;;;;;;8.00;3.10;;;;;;;25.48;31.83;100113.38;107868;1257;60518;-68
2023/05/30 04:15:00;;;;;;;6.90;2.90;;;;;;;25.55;31.56;100112.63;107692;1257;73893;-68
2023/05/30 04:17:28;;;;;;;6.90;2.90;;;;;;;25.95;30.76;100110.64;107913;1256;69251;-68
2023/05/30 04:19:55;;;;;;;6.10;2.50;;;;;;;26.44;29.47;100111.16;107649;1257;72649;-68
2023/05/30 04:22:21;;;;;;;7.60;3.50;;;;;;;26.71;28.61;100111.12;107863;1256;60392;-68
2023/05/30 04:24:50;;;;;;;9.50;2.50;;;;;;;26.98;27.79;100110.83;107878;1256;60219;-69
2023/05/30 04:27:19;;;;;;;7.80;2.70;;;;;;;26.90;28.12;100108.73;107764;1257;74401;-69
2023/05/30 04:29:46;;;;;;;4.70;2.40;;;;;;;27.04;27.13;100107.61;107887;1257;70035;-68
2023/05/30 04:32:13;;;;;;;3.90;2.20;;;;;;;27.24;27.06;100102.17;107647;1256;72434;-67
2023/05/30 04:34:43;;;;;;;6.00;2.40;;;;;;;27.42;26.31;100108.88;107842;1256;60412;-67
2023/05/30 04:37:11;;;;;;;4.00;2.10;;;;;;;27.72;26.10;100110.67;107833;1256;60389;-69
2023/05/30 04:39:39;;;;;;;8.30;2.30;;;;;;;28.12;25.53;100110.73;107657;1256;73921;-67
2023/05/30 04:42:06;;;;;;;5.30;2.50;;;;;;;28.78;24.98;100107.73;107597;1257;69407;-69
2023/05/30 04:44:37;;;;;;;9.50;2.90;;;;;;;28.80;24.76;100110.00;107702;1257;72432;-69
2023/05/30 04:47:08;;;;;;;11.50;2.30;;;;;;;29.16;24.25;100111.16;107705;1262;60303;-68
2023/05/30 04:49:39;;;;;;;6.40;2.40;;;;;;;29.45;23.78;100112.31;107848;1256;60333;-68
2023/05/30 04:52:06;;;;;;;;;;;;;;;29.78;23.92;100111.92;107894;1257;72611;-69
2023/05/30 04:54:33;;;;;;;10.10;2.90;;;;;;;29.79;23.90;100109.41;107869;1256;70706;-69
2023/05/30 04:57:02;;;;;;;12.10;2.90;;;;;;;29.85;23.41;100107.08;107871;1257;72747;-69
2023/05/30 04:59:29;;;;;;;9.60;2.80;;;;;;;29.95;23.63;100109.21;107842;1256;60438;-69
2023/05/30 05:01:56;;;;;;;8.10;2.40;;;;;;;30.22;23.35;100105.92;107867;1257;60122;-68
2023/05/30 05:04:23;;;;;;;7.00;2.40;;;;;;;30.30;22.95;100109.54;107759;1256;73723;-70
2023/05/30 05:06:50;;;;;;;8.80;2.80;;;;;;;30.39;22.81;100113.25;107873;1257;70380;-70
2023/05/30 05:09:16;;;;;;;10.10;2.70;;;;;;;30.66;22.75;100110.55;107927;1256;59110;-69
2023/05/30 05:11:43;;;;;;;6.20;2.00;;;;;;;31.08;22.23;100111.73;107939;1256;60197;-69
2023/05/30 05:14:10;;;;;;;6.30;2.30;;;;;;;31.29;21.76;100115.12;107960;1257;60424;-69
2023/05/30 05:16:37;;;;;;;8.70;2.20;;;;;;;31.58;21.70;100110.52;107919;1256;73884;-70
2023/05/30 05:19:04;;;;;;;10.20;2.70;;;;;;;31.88;20.98;100118.30;107965;1260;70434;-69
2023/05/30 05:21:31;;;;;;;11.50;2.40;;;;;;;32.16;20.66;100121.20;108033;1260;72619;-69
2023/05/30 05:23:57;;;;;;;7.60;2.40;;;;;;;32.34;20.48;100121.91;108134;1256;60390;-69
2023/05/30 05:26:24;;;;;;;7.90;2.40;;;;;;;32.38;20.10;100123.36;107961;1258;60438;-69
2023/05/30 05:28:51;;;;;;;15.80;2.40;;;;;;;32.39;20.15;100120.80;107860;1257;73864;-69
2023/05/30 05:33:25;;;;;;;10.60;2.40;;;;;;;30.50;22.04;100124.21;104975;1289;600145;-69
2023/05/30 05:35:52;;;;;;;10.10;2.40;;;;;;;31.82;20.97;100123.23;107265;1266;60110;-69
2023/05/30 05:38:20;;;;;;;6.80;2.00;;;;;;;32.16;20.40;100119.23;107294;1264;60046;-69
2023/05/30 05:40:48;;;;;;;6.00;2.30;;;;;;;32.44;20.54;100122.73;107328;1264;72297;-69
2023/05/30 05:43:15;;;;;;;6.80;2.30;;;;;;;32.77;20.32;100130.00;107223;1264;70145;-69
2023/05/30 05:45:43;;;;;;;5.40;2.10;;;;;;;32.89;19.87;100128.54;107222;1266;71075;-71
2023/05/30 05:48:10;;;;;;;3.30;2.10;;;;;;;33.14;19.88;100125.48;107234;1262;222877;-69
2023/05/30 05:50:37;;;;;;;6.10;3.00;;;;;;;33.38;19.52;100126.40;107355;1261;59030;-69
2023/05/30 05:53:04;;;;;;;19.20;2.90;;;;;;;33.98;18.96;100121.92;107370;1263;73195;-70
2023/05/30 05:55:32;;;;;;;5.20;2.10;;;;;;;33.99;18.87;100121.55;107555;1263;70749;-68
2023/05/30 05:57:59;;;;;;;6.60;2.20;;;;;;;33.84;18.92;100117.85;107386;1263;72870;-71
2023/05/30 06:00:27;;;;;;;9.10;2.40;;;;;;;33.96;19.01;100119.34;107388;1263;60531;-69
2023/05/30 06:02:55;;;;;;;4.90;1.90;;;;;;;33.89;18.85;100127.30;107298;1263;59212;-70
2023/05/30 06:05:22;;;;;;;5.70;2.10;;;;;;;34.15;18.42;100123.75;107288;1263;65850;-70
2023/05/30 06:07:50;;;;;;;5.80;1.90;;;;;;;33.99;18.52;100123.36;107374;1263;70083;-71
2023/05/30 06:10:17;;;;;;;3.30;1.80;;;;;;;34.07;18.60;100119.41;107342;1263;73158;-68
2023/05/30 06:12:45;;;;;;;15.20;2.90;;;;;;;34.73;18.11;100123.08;107320;1263;59630;-68
2023/05/30 06:15:12;;;;;;;7.90;1.90;;;;;;;35.07;17.89;100123.98;107398;1263;59347;-68
2023/05/30 06:17:40;;;;;;;9.70;2.20;;;;;;;35.19;17.68;100123.14;107316;1268;64177;-69
2023/05/30 06:20:08;;;;;;;6.10;2.00;;;;;;;35.31;17.16;100120.05;107238;1264;61419;-68
2023/05/30 06:22:35;;;;;;;7.80;2.10;;;;;;;35.17;17.25;100121.42;107267;1265;63748;-67
2023/05/30 06:25:03;;;;;;;6.20;1.80;;;;;;;35.31;17.43;100123.08;107212;1264;59708;-68
2023/05/30 06:27:31;;;;;;;9.60;2.00;;;;;;;35.54;17.11;100121.80;107333;1264;59582;-68
2023/05/30 06:29:58;;;;;;;3.80;1.50;;;;;;;35.61;16.86;100120.84;107393;1263;64137;-68
2023/05/30 06:32:25;;;;;;;8.10;2.00;;;;;;;35.45;16.72;100121.10;107376;1264;61383;-69
2023/05/30 06:34:53;;;;;;;9.50;2.20;;;;;;;35.40;16.70;100127.03;107292;1264;63741;-67
2023/05/30 06:37:20;;;;;;;3.30;1.70;;;;;;;35.22;16.82;100129.35;107293;1264;59630;-68
2023/05/30 06:39:48;;;;;;;5.10;1.70;;;;;;;35.20;16.86;100122.72;107306;1264;59498;-69
2023/05/30 06:42:15;;;;;;;7.60;2.20;;;;;;;34.98;17.26;100121.86;107383;1264;63027;-70
2023/05/30 06:44:43;;;;;;;3.40;2.10;;;;;;;35.13;17.12;100125.31;107338;1263;61310;-68
2023/05/30 06:47:11;;;;;;;4.70;2.10;;;;;;;35.44;16.97;100122.88;107287;1265;64881;-68
2023/05/30 06:49:38;;;;;;;6.00;2.10;;;;;;;35.30;16.65;100122.92;107290;1266;59673;-68
2023/05/30 06:52:05;;;;;;;5.30;2.10;;;;;;;35.13;16.86;100122.23;107283;1264;59333;-69
2023/05/30 06:54:33;;;;;;;7.20;1.90;;;;;;;34.93;17.00;100120.45;107193;1264;62993;-68
2023/05/30 06:57:03;;;;;;;5.20;1.80;;;;;;;35.03;17.07;100114.52;107630;1257;71237;-68
2023/05/30 06:59:33;;;;;;;3.00;1.70;;;;;;;35.68;17.02;100108.27;107583;1257;62496;-68
2023/05/30 07:02:02;;;;;;;4.80;1.80;;;;;;;36.09;16.36;100106.83;107641;1256;59656;-69
2023/05/30 07:04:29;;;;;;;18.10;2.10;;;;;;;36.35;15.82;100107.19;107751;1262;59103;-67
2023/05/30 07:06:57;;;;;;;9.10;2.40;;;;;;;35.99;15.58;100110.62;107692;1256;65120;-68
2023/05/30 07:09:26;;;;;;;6.40;2.00;;;;;;;35.93;15.56;100111.52;107698;1256;61429;-69
2023/05/30 07:11:53;;;;;;;6.20;1.50;;;;;;;36.21;15.83;100103.48;107750;1260;63743;-68
2023/05/30 07:14:20;;;;;;;6.20;1.50;;;;;;;36.42;15.60;100106.44;107670;1256;59625;-68
2023/05/30 07:16:48;;;;;;;6.40;1.60;;;;;;;36.25;15.36;100101.42;107680;1256;59109;-69
2023/05/30 07:19:15;;;;;;;6.80;1.70;;;;;;;36.02;15.40;100103.42;107680;1256;64935;-69
2023/05/30 07:21:43;;;;;;;5.90;2.00;;;;;;;35.68;15.63;100099.39;107812;1256;60261;-68
2023/05/30 07:24:10;;;;;;;4.10;1.40;;;;;;;35.75;15.84;100102.42;107669;1256;63753;-68
2023/05/30 07:26:37;;;;;;;6.40;1.90;;;;;;;36.10;15.69;100099.98;107671;1256;59985;-68
2023/05/30 07:29:05;;;;;;;5.40;1.60;;;;;;;36.35;15.41;100097.91;107671;1256;59115;-68
2023/05/30 07:31:32;;;;;;;6.80;1.70;;;;;;;36.28;15.43;100100.60;107667;1256;62815;-68
2023/05/30 07:33:59;;;;;;;7.20;1.80;;;;;;;35.99;15.42;100101.52;107694;1256;60130;-68
2023/05/30 07:36:27;;;;;;;4.80;1.60;;;;;;;36.01;15.46;100102.67;107706;1256;63716;-68
2023/05/30 07:38:54;;;;;;;5.50;1.80;;;;;;;36.27;15.66;100098.10;107657;1256;59439;-69
2023/05/30 07:41:22;;;;;;;2.80;1.30;;;;;;;36.77;15.09;100100.70;107841;1257;59624;-68
2023/05/30 07:43:49;;;;;;;5.80;1.70;;;;;;;36.99;14.66;100102.14;107786;1256;64222;-70
2023/05/30 07:46:17;;;;;;;3.30;1.30;;;;;;;37.07;14.68;100099.86;107721;1257;60243;-67
2023/05/30 07:48:45;;;;;;;5.40;1.80;;;;;;;36.79;14.70;100094.95;107594;1257;62440;-69
2023/05/30 07:51:12;;;;;;;3.70;1.90;;;;;;;36.78;15.04;100095.34;107712;1257;59682;-68
2023/05/30 07:53:40;;;;;;;3.80;1.50;;;;;;;37.01;14.84;100088.05;107637;1256;59690;-68
2023/05/30 07:56:07;;;;;;;7.60;1.70;;;;;;;37.30;14.82;100093.08;107714;1257;64146;-69
2023/05/30 07:58:34;;;;;;;3.90;1.60;;;;;;;37.54;14.34;100094.13;107771;1256;60092;-68
2023/05/30 08:01:02;;;;;;;4.70;1.60;;;;;;;37.45;14.27;100092.05;107739;1256;63752;-70
2023/05/30 08:03:29;;;;;;;5.80;1.60;;;;;;;37.25;14.58;100092.85;107712;1262;59503;-69
2023/05/30 08:05:57;;;;;;;5.60;1.80;;;;;;;36.95;14.43;100097.63;107672;1257;59604;-68
2023/05/30 08:08:25;;;;;;;11.70;1.60;;;;;;;36.94;14.67;100090.88;107626;1257;64345;-70
2023/05/30 08:10:53;;;;;;;3.10;1.50;;;;;;;37.34;14.78;100087.48;107658;1257;71393;-68
2023/05/30 08:13:24;;;;;;;4.20;1.40;;;;;;;37.43;14.39;100087.01;107596;1259;63722;-69
2023/05/30 08:15:51;;;;;;;3.50;1.60;;;;;;;37.78;14.45;100081.70;107673;1257;59524;-68
2023/05/30 08:18:21;;;;;;;3.80;1.70;;;;;;;37.94;13.89;100086.06;107702;1257;59709;-69
2023/05/30 08:20:50;;;;;;;8.00;1.50;;;;;;;38.10;13.96;100088.50;107693;1258;62951;-68
2023/05/30 08:23:18;;;;;;;5.40;1.50;;;;;;;38.30;13.77;100086.38;107692;1257;60112;-68
2023/05/30 08:25:46;;;;;;;4.60;1.60;;;;;;;38.23;13.63;100083.02;107580;1256;62536;-68
2023/05/30 08:28:14;;;;;;;6.30;1.60;;;;;;;38.02;13.85;100087.70;107689;1262;59629;-68
2023/05/30 08:30:44;;;;;;;3.40;1.60;;;;;;;38.18;13.73;100091.23;107588;1256;59683;-67
2023/05/30 08:33:13;;;;;;;4.40;1.20;;;;;;;38.09;13.55;100082.34;107704;1256;64185;-68
2023/05/30 08:35:40;;;;;;;4.00;1.30;;;;;;;38.05;13.75;100080.62;107701;1257;61380;-68
2023/05/30 08:38:08;;;;;;;3.70;1.60;;;;;;;38.01;13.94;100080.80;107499;1256;63903;-69
2023/05/30 08:40:35;;;;;;;2.60;1.70;;;;;;;38.49;13.52;100080.71;107743;1260;60250;-67
2023/05/30 08:43:02;;;;;;;4.80;1.30;;;;;;;38.70;13.58;100081.15;107623;1256;59118;-69
2023/05/30 08:45:30;;;;;;;5.50;1.50;;;;;;;38.94;13.38;100079.35;107764;1257;64173;-68
2023/05/30 08:48:01;;;;;;;3.10;1.60;;;;;;;38.86;13.44;100080.17;107743;1256;61548;-67
2023/05/30 08:50:29;;;;;;;6.00;1.50;;;;;;;38.99;13.14;100075.34;107713;1259;63834;-67
2023/05/30 08:52:59;;;;;;;3.10;1.60;;;;;;;39.11;12.78;100071.16;107666;1259;59163;-67
2023/05/30 08:55:30;;;;;;;10.50;1.60;;;;;;;39.15;12.53;100069.36;107682;1257;59974;-68
2023/05/30 08:58:04;;;;;;;5.70;1.50;;;;;;;39.16;12.79;100068.61;107615;1256;72285;-69
2023/05/30 09:00:31;;;;;;;6.90;1.70;;;;;;;39.58;12.71;100065.02;107814;1257;61368;-68
2023/05/30 09:02:59;;;;;;;3.50;1.40;;;;;;;40.19;12.30;100062.59;107845;1257;62594;-68
2023/05/30 09:05:26;;;;;;;4.00;1.80;;;;;;;40.17;11.89;100057.98;107391;1257;59515;-70
2023/05/30 09:07:55;;;;;;;4.10;1.60;;;;;;;39.97;12.05;100054.75;107473;1258;59595;-70
2023/05/30 09:10:23;;;;;;;6.20;1.40;;;;;;;39.82;12.17;100053.25;107627;1257;64131;-69
2023/05/30 09:12:50;;;;;;;5.10;1.50;;;;;;;39.64;12.28;100055.09;107588;1257;61458;-69
2023/05/30 09:15:17;;;;;;;4.60;1.40;;;;;;;39.54;12.24;100054.65;107527;1258;63748;-69
2023/05/30 09:17:45;;;;;;;3.60;1.40;;;;;;;39.20;12.31;100053.16;107560;1257;59519;-69
2023/05/30 09:20:17;;;;;;;4.00;1.30;;;;;;;39.67;12.46;100048.05;107704;1257;59574;-70
2023/05/30 09:22:45;;;;;;;5.40;1.70;;;;;;;39.78;12.19;100048.95;107600;1257;62851;-69
2023/05/30 09:25:15;;;;;;;3.00;1.70;;;;;;;39.23;12.49;100053.60;107727;1257;60251;-69
2023/05/30 09:27:48;;;;;;;5.20;1.90;;;;;;;39.09;12.66;100050.64;107696;1257;63838;-68
2023/05/30 09:30:16;;;;;;;5.50;1.80;;;;;;;38.51;12.62;100047.02;107601;1256;59218;-68
2023/05/30 09:32:59;;;;;;;2.90;1.30;;;;;;;37.99;12.94;100046.33;107604;1256;59590;-69
2023/05/30 09:35:27;;;;;;;5.10;1.60;;;;;;;37.68;13.56;100039.98;107617;1256;75586;-70
2023/05/30 09:37:54;;;;;;;4.20;1.80;;;;;;;38.07;13.30;100040.52;107631;1256;61428;-68
2023/05/30 09:40:23;;;;;;;14.40;2.50;;;;;;;38.62;13.34;100040.16;107598;1256;63711;-68
2023/05/30 09:42:52;;;;;;;5.50;1.50;;;;;;;39.08;12.96;100045.20;107666;1256;60470;-69
2023/05/30 09:45:23;;;;;;;7.20;1.70;;;;;;;39.31;12.38;100040.89;107724;1256;60429;-69
2023/05/30 09:47:52;;;;;;;6.80;1.70;;;;;;;39.12;12.40;100038.24;107677;1256;65069;-69
2023/05/30 09:50:20;;;;;;;6.40;1.60;;;;;;;38.90;12.44;100028.39;107715;1256;61415;-69
2023/05/30 09:52:49;;;;;;;7.20;2.00;;;;;;;39.14;12.71;100032.06;107716;1262;63753;-69
2023/05/30 09:55:17;;;;;;;3.90;1.50;;;;;;;39.60;12.49;100033.81;107646;1256;60438;-68
2023/05/30 09:57:51;;;;;;;2.80;1.70;;;;;;;39.90;11.85;100026.37;107673;1256;60358;-69
2023/05/30 10:00:22;;;;;;;3.60;1.50;;;;;;;40.09;12.04;100025.55;107636;1256;73884;-70
2023/05/30 10:02:54;;;;;;;9.50;1.70;;;;;;;40.32;11.79;100025.45;107767;1256;61399;-69
2023/05/30 10:05:24;;;;;;;5.30;1.80;;;;;;;39.69;11.99;100025.85;107582;1256;63801;-70
2023/05/30 10:07:56;;;;;;;2.90;1.50;;;;;;;38.73;12.35;100027.71;107680;1259;60349;-70
2023/05/30 10:10:23;;;;;;;3.00;1.70;;;;;;;38.08;12.71;100023.94;107732;1256;60405;-69
2023/05/30 10:12:54;;;;;;;3.50;1.30;;;;;;;37.96;12.87;100013.95;107762;1256;64935;-70
2023/05/30 10:15:23;;;;;;;5.50;1.80;;;;;;;38.11;12.78;100016.83;107825;1256;60329;-69
2023/05/30 10:18:06;;;;;;;6.20;1.30;;;;;;;38.38;12.78;100020.66;107675;1259;64193;-69
2023/05/30 10:20:38;;;;;;;4.00;1.70;;;;;;;38.54;12.43;100019.42;107643;1263;60355;-70
2023/05/30 10:23:08;;;;;;;3.80;1.60;;;;;;;38.42;12.21;100018.61;107751;1256;60300;-70
2023/05/30 10:25:36;;;;;;;2.40;1.60;;;;;;;38.10;12.58;100014.48;107880;1258;63784;-69
2023/05/30 10:28:05;;;;;;;3.80;1.60;;;;;;;38.01;13.06;100006.60;107707;1256;61454;-69
2023/05/30 10:30:33;;;;;;;2.60;1.70;;;;;;;38.32;12.87;100003.98;107752;1256;62433;-67
2023/05/30 10:33:11;;;;;;;4.30;1.90;;;;;;;38.68;12.50;99996.14;107795;1256;60414;-68
2023/05/30 10:35:38;;;;;;;5.20;1.70;;;;;;;39.29;12.52;99996.73;107744;1256;60416;-68
2023/05/30 10:38:07;;;;;;;5.50;1.60;;;;;;;39.75;12.09;100000.92;107796;1256;64950;-70
2023/05/30 10:40:43;;;;;;;3.60;1.60;;;;;;;39.62;12.11;99997.58;107776;1258;60182;-69
2023/05/30 10:43:13;;;;;;;7.60;1.80;;;;;;;39.57;12.35;99994.59;108004;1253;63687;-69
2023/05/30 10:46:03;;;;;;;5.90;1.80;;;;;;;39.48;12.38;99988.86;108057;1256;60331;-68
2023/05/30 10:48:50;;;;;;;8.10;2.00;;;;;;;38.73;12.48;99988.13;108036;1253;59134;-69
2023/05/30 10:51:17;;;;;;;7.70;2.10;;;;;;;37.86;13.12;99988.30;108154;1254;64936;-69
2023/05/30 10:53:46;;;;;;;3.30;1.60;;;;;;;37.49;13.16;99987.41;108004;1253;60846;-69
2023/05/30 10:56:25;;;;;;;8.20;1.90;;;;;;;37.52;13.71;99988.77;108073;1253;62496;-69
2023/05/30 10:58:53;;;;;;;9.10;2.40;;;;;;;38.06;13.17;99989.49;108031;1255;60425;-69
2023/05/30 11:01:21;;;;;;;5.20;1.60;;;;;;;38.62;13.12;99983.86;108025;1253;62255;-68
2023/05/30 11:03:49;;;;;;;4.50;1.60;;;;;;;38.96;12.99;99976.16;108019;1253;64976;-70
2023/05/30 11:06:16;;;;;;;3.90;1.50;;;;;;;39.35;12.52;99972.41;107967;1253;60288;-69
2023/05/30 11:08:44;;;;;;;2.50;1.60;;;;;;;39.84;12.26;99969.80;107971;1254;63731;-69
2023/05/30 11:11:16;;;;;;;4.20;1.70;;;;;;;40.21;12.04;99965.31;107959;1255;60305;-69
2023/05/30 11:13:43;;;;;;;8.20;1.70;;;;;;;40.45;11.77;99971.30;108033;1254;60449;-69
2023/05/30 11:16:21;;;;;;;7.20;1.80;;;;;;;39.88;11.83;99966.73;108001;1260;64939;-70
2023/05/30 11:18:50;;;;;;;8.30;1.80;;;;;;;39.11;12.27;99969.09;107950;1255;61377;-69
2023/05/30 11:21:58;;;;;;;5.10;1.60;;;;;;;38.50;12.65;99967.06;108042;1255;64526;-69
2023/05/30 11:24:27;;;;;;;3.20;1.50;;;;;;;38.17;12.98;99966.92;107982;1254;60514;-67
2023/05/30 11:27:07;;;;;;;5.90;1.60;;;;;;;38.11;12.93;99964.80;107985;1253;60323;-69